createdAt,value
2022-12-28T00:02:18.249Z,4.00
2022-12-28T00:04:48.327Z,4.05
2022-12-28T00:07:16.974Z,4.02
2022-12-28T00:09:45.371Z,3.83
2022-12-28T00:12:13.908Z,3.95
2022-12-28T00:14:42.257Z,3.96
2022-12-28T00:17:10.690Z,4.02
2022-12-28T00:19:39.079Z,4.08
2022-12-28T00:22:08.893Z,3.97
2022-12-28T00:24:37.307Z,4.18
2022-12-28T00:27:05.741Z,4.16
2022-12-28T00:29:34.172Z,4.17
2022-12-28T00:32:02.735Z,4.10
2022-12-28T00:34:31.104Z,4.18
2022-12-28T00:37:10.917Z,4.35
2022-12-28T00:39:43.226Z,4.32
2022-12-28T00:42:15.854Z,4.23
2022-12-28T00:44:45.111Z,4.39
2022-12-28T00:47:13.461Z,4.39
2022-12-28T00:49:41.759Z,4.33
2022-12-28T00:52:10.067Z,4.29
2022-12-28T00:54:38.448Z,4.29
2022-12-28T00:57:08.098Z,4.43
2022-12-28T00:59:36.467Z,4.31
2022-12-28T01:02:04.829Z,4.44
2022-12-28T01:04:33.158Z,4.33
2022-12-28T01:07:01.602Z,4.27
2022-12-28T01:09:32.784Z,4.38
2022-12-28T01:12:01.196Z,4.55
2022-12-28T01:14:31.664Z,4.45
2022-12-28T01:17:00.042Z,4.37
2022-12-28T01:19:28.431Z,4.41
2022-12-28T01:21:57.952Z,4.58
2022-12-28T01:24:26.340Z,4.47
2022-12-28T01:26:54.688Z,4.36
2022-12-28T01:29:23.073Z,4.42
2022-12-28T01:31:53.016Z,4.65
2022-12-28T01:34:21.658Z,4.70
2022-12-28T01:36:50.000Z,4.65
2022-12-28T01:39:18.742Z,4.68
2022-12-28T01:41:47.341Z,4.44
2022-12-28T01:44:44.960Z,4.51
2022-12-28T01:47:23.277Z,4.52
2022-12-28T01:49:59.984Z,4.65
2022-12-28T01:52:35.799Z,4.73
2022-12-28T01:55:10.381Z,4.56
2022-12-28T01:57:46.593Z,4.63
2022-12-28T02:00:18.271Z,4.68
2022-12-28T02:02:59.055Z,4.53
2022-12-28T02:05:32.111Z,4.49
2022-12-28T02:08:07.420Z,4.47
2022-12-28T02:10:43.455Z,4.36
2022-12-28T02:13:14.437Z,4.31
2022-12-28T02:15:43.025Z,4.29
2022-12-28T02:18:14.602Z,4.44
2022-12-28T02:21:01.770Z,4.54
2022-12-28T02:23:56.532Z,4.53
2022-12-28T02:26:47.894Z,4.44
2022-12-28T02:30:07.264Z,4.60
2022-12-28T02:32:52.640Z,4.63
2022-12-28T02:35:30.644Z,4.38
2022-12-28T02:38:06.482Z,4.44
2022-12-28T02:40:40.483Z,4.43
2022-12-28T02:43:08.949Z,4.42
2022-12-28T02:45:59.892Z,4.65
2022-12-28T02:48:46.332Z,4.79
2022-12-28T02:51:46.287Z,4.78
2022-12-28T02:55:07.311Z,4.86
2022-12-28T02:57:56.333Z,4.86
2022-12-28T03:00:30.445Z,4.79
2022-12-28T03:03:19.159Z,4.74
2022-12-28T03:06:19.126Z,4.75
2022-12-28T03:08:55.407Z,4.94
2022-12-28T03:11:32.577Z,5.03
2022-12-28T03:14:08.196Z,5.10
2022-12-28T03:16:53.678Z,4.89
2022-12-28T03:19:51.070Z,4.99
2022-12-28T03:22:38.605Z,4.96
2022-12-28T03:25:32.333Z,4.96
2022-12-28T03:28:23.662Z,4.98
2022-12-28T03:31:07.823Z,5.05
2022-12-28T03:33:49.271Z,4.86
2022-12-28T03:36:28.025Z,5.07
2022-12-28T03:39:05.482Z,4.92
2022-12-28T03:41:40.513Z,4.99
2022-12-28T03:44:35.551Z,5.14
2022-12-28T03:47:10.835Z,5.18
2022-12-28T03:49:40.691Z,5.13
2022-12-28T03:52:12.267Z,4.95
2022-12-28T03:54:41.780Z,5.35
2022-12-28T03:57:13.696Z,5.53
2022-12-28T03:59:45.052Z,5.46
2022-12-28T04:02:14.059Z,5.38
2022-12-28T04:04:43.146Z,5.57
2022-12-28T04:07:13.115Z,5.42
2022-12-28T04:09:41.633Z,5.51
2022-12-28T04:12:14.607Z,5.50
2022-12-28T04:15:07.325Z,5.54
2022-12-28T04:17:36.281Z,5.58
2022-12-28T04:20:06.039Z,5.53
2022-12-28T04:22:36.480Z,5.58
2022-12-28T04:25:06.136Z,5.46
2022-12-28T04:27:36.228Z,5.42
2022-12-28T04:30:12.800Z,5.58
2022-12-28T04:32:41.144Z,5.67
2022-12-28T04:35:10.349Z,5.71
2022-12-28T04:37:48.113Z,5.72
2022-12-28T04:40:16.903Z,5.75
2022-12-28T04:42:45.283Z,5.84
2022-12-28T04:45:16.979Z,5.87
2022-12-28T04:47:49.985Z,5.89
2022-12-28T04:50:18.519Z,5.76
2022-12-28T04:52:48.238Z,5.88
2022-12-28T04:55:33.123Z,5.95
2022-12-28T04:58:02.100Z,5.94
2022-12-28T05:00:30.503Z,5.98
2022-12-28T05:03:00.707Z,6.08
2022-12-28T05:05:29.976Z,6.11
2022-12-28T05:08:02.495Z,6.06
2022-12-28T05:10:31.379Z,6.12
2022-12-28T05:12:59.768Z,6.07
2022-12-28T05:15:28.071Z,6.07
2022-12-28T05:17:57.116Z,6.06
2022-12-28T05:20:25.414Z,6.00
2022-12-28T05:22:53.683Z,6.19
2022-12-28T05:25:23.604Z,6.12
2022-12-28T05:27:52.004Z,5.96
2022-12-28T05:30:20.321Z,6.18
2022-12-28T05:32:48.659Z,6.25
2022-12-28T05:35:17.131Z,6.24
2022-12-28T05:37:45.438Z,6.12
2022-12-28T05:40:13.982Z,6.23
2022-12-28T05:42:49.658Z,6.20
2022-12-28T05:45:20.230Z,6.18
2022-12-28T05:47:48.582Z,6.15
2022-12-28T05:50:17.291Z,6.32
2022-12-28T05:52:45.772Z,6.39
2022-12-28T05:55:14.073Z,6.32
2022-12-28T05:57:43.784Z,6.24
2022-12-28T06:00:13.494Z,6.43
2022-12-28T06:02:41.990Z,6.43
2022-12-28T06:05:10.910Z,6.49
2022-12-28T06:07:39.238Z,6.48
2022-12-28T06:10:09.291Z,6.32
2022-12-28T06:12:37.714Z,6.38
2022-12-28T06:15:09.270Z,6.43
2022-12-28T06:17:38.128Z,6.57
2022-12-28T06:20:08.336Z,6.45
2022-12-28T06:22:36.732Z,6.41
2022-12-28T06:25:05.614Z,6.61
2022-12-28T06:27:33.873Z,6.69
2022-12-28T06:30:02.219Z,6.74
2022-12-28T06:32:31.947Z,6.63
2022-12-28T06:35:00.237Z,6.57
2022-12-28T06:37:28.534Z,6.59
2022-12-28T06:39:56.839Z,6.72
2022-12-28T06:42:25.245Z,6.72
2022-12-28T06:44:53.715Z,6.58
2022-12-28T06:47:22.141Z,6.47
2022-12-28T06:49:51.865Z,6.61
2022-12-28T06:52:20.246Z,6.53
2022-12-28T06:54:48.544Z,6.51
2022-12-28T06:57:16.940Z,6.44
2022-12-28T06:59:45.213Z,6.45
2022-12-28T07:02:13.654Z,6.43
2022-12-28T07:04:42.056Z,6.61
2022-12-28T07:07:11.866Z,6.74
2022-12-28T07:09:40.205Z,6.66
2022-12-28T07:12:08.811Z,6.74
2022-12-28T07:14:37.215Z,6.83
2022-12-28T07:17:05.507Z,6.77
2022-12-28T07:19:33.887Z,6.80
2022-12-28T07:22:03.255Z,6.97
2022-12-28T07:24:32.956Z,7.03
2022-12-28T07:27:01.312Z,7.03
2022-12-28T07:29:29.695Z,6.92
2022-12-28T07:31:58.015Z,6.85
2022-12-28T07:34:26.315Z,6.88
2022-12-28T07:36:54.730Z,6.88
2022-12-28T07:39:23.109Z,6.89
2022-12-28T07:41:52.840Z,6.87
2022-12-28T07:44:25.567Z,6.91
2022-12-28T07:46:57.609Z,6.98
2022-12-28T07:49:25.988Z,6.76
2022-12-28T07:51:54.319Z,6.87
2022-12-28T07:54:22.657Z,6.87
2022-12-28T07:56:52.364Z,6.86
2022-12-28T07:59:22.721Z,6.76
2022-12-28T08:01:53.305Z,6.83
2022-12-28T08:04:21.782Z,6.93
2022-12-28T08:06:50.085Z,6.74
2022-12-28T08:09:18.369Z,6.99
2022-12-28T08:11:49.778Z,6.94
2022-12-28T08:14:19.566Z,6.88
2022-12-28T08:16:47.868Z,6.83
2022-12-28T08:19:16.540Z,6.88
2022-12-28T08:21:46.483Z,6.87
2022-12-28T08:24:17.591Z,6.90
2022-12-28T08:26:47.458Z,6.82
2022-12-28T08:29:20.350Z,6.72
2022-12-28T08:31:49.792Z,6.69
2022-12-28T08:34:23.136Z,6.56
2022-12-28T08:36:51.459Z,6.64
2022-12-28T08:39:19.851Z,6.69
2022-12-28T08:41:48.380Z,6.81
2022-12-28T08:44:16.711Z,6.90
2022-12-28T08:46:46.525Z,6.94
2022-12-28T08:49:15.210Z,6.96
2022-12-28T08:51:44.029Z,6.99
2022-12-28T08:54:14.892Z,7.13
2022-12-28T08:56:45.979Z,7.19
2022-12-28T08:59:17.329Z,7.15
2022-12-28T09:01:48.529Z,7.03
2022-12-28T09:04:20.356Z,7.16
2022-12-28T09:06:49.718Z,7.09
2022-12-28T09:09:21.008Z,7.13
2022-12-28T09:11:50.096Z,7.14
2022-12-28T09:14:23.748Z,7.21
2022-12-28T09:16:54.904Z,7.33
2022-12-28T09:19:24.046Z,7.16
2022-12-28T09:21:55.244Z,7.17
2022-12-28T09:24:24.464Z,7.19
2022-12-28T09:26:54.626Z,6.93
2022-12-28T09:29:23.066Z,6.83
2022-12-28T09:31:51.541Z,6.96
2022-12-28T09:34:37.787Z,6.93
2022-12-28T09:37:07.730Z,6.89
2022-12-28T09:39:36.151Z,7.13
2022-12-28T09:42:12.496Z,7.23
2022-12-28T09:45:04.196Z,7.28
2022-12-28T09:47:39.906Z,7.36
2022-12-28T09:50:29.941Z,7.39
2022-12-28T09:53:26.763Z,7.35
2022-12-28T09:56:04.454Z,7.48
2022-12-28T09:58:37.981Z,7.46
2022-12-28T10:01:13.511Z,7.59
2022-12-28T10:03:45.232Z,7.44
2022-12-28T10:06:17.933Z,7.28
2022-12-28T10:08:50.035Z,7.19
2022-12-28T10:11:23.711Z,7.18
2022-12-28T10:13:59.521Z,7.29
2022-12-28T10:16:32.604Z,7.29
2022-12-28T10:19:01.628Z,7.12
2022-12-28T10:21:34.521Z,7.22
2022-12-28T10:26:58.186Z,7.02
2022-12-28T10:29:28.336Z,7.13
2022-12-28T10:32:02.709Z,7.08
2022-12-28T10:34:34.288Z,6.88
2022-12-28T10:37:15.380Z,6.98
2022-12-28T10:39:52.730Z,6.78
2022-12-28T10:42:27.292Z,6.92
2022-12-28T10:45:03.498Z,6.87
2022-12-28T10:47:36.195Z,6.96
2022-12-28T10:53:00.172Z,6.93
2022-12-28T10:55:32.113Z,6.91
2022-12-28T10:58:30.263Z,6.92
2022-12-28T11:01:02.860Z,6.91
2022-12-28T11:03:35.550Z,6.62
2022-12-28T11:06:19.874Z,6.75
2022-12-28T11:09:07.593Z,6.79
2022-12-28T11:11:36.184Z,6.64
2022-12-28T11:14:13.655Z,6.78
2022-12-28T11:16:43.381Z,6.76
2022-12-28T11:19:13.066Z,6.73
2022-12-28T11:21:44.169Z,6.90
2022-12-28T11:24:17.283Z,6.24
2022-12-28T11:26:49.104Z,6.58
2022-12-28T11:29:20.446Z,6.66
2022-12-28T11:31:54.432Z,6.38
2022-12-28T11:34:28.032Z,6.79
2022-12-28T11:36:57.115Z,6.70
2022-12-28T11:39:46.370Z,6.70
2022-12-28T11:42:55.171Z,6.73
2022-12-28T11:45:54.308Z,6.38
2022-12-28T11:48:47.681Z,6.34
2022-12-28T11:51:18.570Z,6.54
2022-12-28T11:53:58.516Z,6.58
2022-12-28T11:56:50.316Z,6.70
2022-12-28T11:59:25.870Z,6.80
2022-12-28T12:01:59.479Z,6.95
2022-12-28T12:04:35.015Z,6.72
2022-12-28T12:07:46.607Z,6.91
2022-12-28T12:10:35.334Z,6.76
2022-12-28T12:13:38.994Z,6.77
2022-12-28T12:16:21.727Z,6.86
2022-12-28T12:18:54.668Z,6.89
2022-12-28T12:21:32.728Z,6.74
2022-12-28T12:24:14.481Z,6.93
2022-12-28T12:26:51.188Z,6.95
2022-12-28T12:29:24.924Z,6.89
2022-12-28T12:32:02.231Z,6.87
2022-12-28T12:34:42.950Z,6.86
2022-12-28T12:37:30.542Z,6.97
2022-12-28T12:40:50.318Z,7.05
2022-12-28T12:43:31.630Z,7.03
2022-12-28T12:46:20.409Z,7.13
2022-12-28T12:49:15.282Z,7.08
2022-12-28T12:51:53.838Z,6.95
2022-12-28T12:54:37.788Z,7.04
2022-12-28T12:57:16.935Z,7.10
2022-12-28T13:00:03.664Z,7.07
2022-12-28T13:03:30.526Z,7.15
2022-12-28T13:06:00.878Z,6.95
2022-12-28T13:08:41.934Z,7.03
2022-12-28T13:11:11.759Z,6.92
2022-12-28T13:13:42.812Z,7.07
2022-12-28T13:16:17.359Z,7.12
2022-12-28T13:18:55.934Z,6.97
2022-12-28T13:21:27.950Z,7.11
2022-12-28T13:23:56.453Z,7.21
2022-12-28T13:26:29.926Z,7.21
2022-12-28T13:29:01.765Z,7.10
2022-12-28T13:31:35.344Z,7.23
2022-12-28T13:34:06.662Z,7.34
2022-12-28T13:36:36.569Z,7.27
2022-12-28T13:39:12.829Z,7.41
2022-12-28T13:41:50.266Z,7.34
2022-12-28T13:44:45.508Z,7.25
2022-12-28T13:47:23.400Z,7.33
2022-12-28T13:49:58.990Z,7.41
2022-12-28T13:52:34.029Z,7.41
2022-12-28T13:55:08.546Z,7.65
2022-12-28T13:57:50.135Z,7.59
2022-12-28T14:00:20.850Z,7.51
2022-12-28T14:02:53.344Z,7.71
2022-12-28T14:05:27.016Z,7.57
2022-12-28T14:07:59.470Z,7.55
2022-12-28T14:10:28.574Z,7.58
2022-12-28T14:12:57.816Z,7.67
2022-12-28T14:15:26.881Z,7.62
2022-12-28T14:17:55.759Z,7.45
2022-12-28T14:20:24.295Z,7.37
2022-12-28T14:22:52.835Z,7.65
2022-12-28T14:25:24.137Z,7.66
2022-12-28T14:27:58.691Z,7.51
2022-12-28T14:30:31.496Z,7.42
2022-12-28T14:33:22.384Z,7.49
2022-12-28T14:35:56.220Z,7.47
2022-12-28T14:38:30.057Z,7.50
2022-12-28T14:41:03.348Z,7.24
2022-12-28T14:43:36.636Z,7.28
2022-12-28T14:46:18.185Z,7.33
2022-12-28T14:48:46.803Z,7.36
2022-12-28T14:51:31.564Z,7.21
2022-12-28T14:54:19.312Z,7.19
2022-12-28T14:56:54.732Z,7.22
2022-12-28T14:59:28.431Z,7.23
2022-12-28T15:01:57.102Z,7.23
2022-12-28T15:04:37.734Z,7.13
2022-12-28T15:07:08.287Z,7.20
2022-12-28T15:09:37.042Z,7.14
2022-12-28T15:12:14.924Z,7.05
2022-12-28T15:14:44.056Z,7.22
2022-12-28T15:17:12.504Z,7.19
2022-12-28T15:19:42.554Z,7.13
2022-12-28T15:22:10.944Z,6.93
2022-12-28T15:24:41.596Z,6.94
2022-12-28T15:27:11.448Z,6.92
2022-12-28T15:30:04.382Z,6.91
2022-12-28T15:32:29.435Z,6.89
2022-12-28T15:34:57.848Z,6.82
2022-12-28T15:37:26.198Z,6.82
2022-12-28T15:39:54.685Z,6.87
2022-12-28T15:42:24.426Z,6.88
2022-12-28T15:44:54.034Z,6.86
2022-12-28T15:47:23.301Z,6.88
2022-12-28T15:49:51.674Z,6.90
2022-12-28T15:52:20.041Z,6.78
2022-12-28T15:54:48.373Z,6.71
2022-12-28T15:57:16.977Z,6.74
2022-12-28T15:59:47.457Z,6.66
2022-12-28T16:02:16.676Z,6.64
2022-12-28T16:04:45.212Z,6.52
2022-12-28T16:07:13.724Z,6.63
2022-12-28T16:09:42.104Z,6.62
2022-12-28T16:12:10.535Z,6.63
2022-12-28T16:14:39.114Z,6.55
2022-12-28T16:17:08.910Z,6.54
2022-12-28T16:19:37.300Z,6.65
2022-12-28T16:22:05.692Z,6.57
2022-12-28T16:24:34.318Z,6.51
2022-12-28T16:27:02.848Z,6.42
2022-12-28T16:29:31.368Z,6.55
2022-12-28T16:32:01.494Z,6.42
2022-12-28T16:34:31.781Z,6.58
2022-12-28T16:37:00.496Z,6.61
2022-12-28T16:39:30.851Z,6.31
2022-12-28T16:41:59.683Z,6.50
2022-12-28T16:44:29.390Z,6.36
2022-12-28T16:46:59.725Z,6.35
2022-12-28T16:49:30.705Z,6.53
2022-12-28T16:51:59.348Z,6.56
2022-12-28T16:54:29.169Z,6.46
2022-12-28T16:56:57.704Z,6.40
2022-12-28T16:59:28.874Z,6.51
2022-12-28T17:01:59.195Z,6.41
2022-12-28T17:04:28.117Z,6.40
2022-12-28T17:06:57.895Z,6.49
2022-12-28T17:09:26.369Z,6.29
2022-12-28T17:11:54.692Z,6.42
2022-12-28T17:14:37.347Z,6.51
2022-12-28T17:17:07.136Z,6.53
2022-12-28T17:19:36.210Z,6.23
2022-12-28T17:22:06.625Z,6.37
2022-12-28T17:24:34.971Z,6.56
2022-12-28T17:27:07.744Z,6.48
2022-12-28T17:29:37.476Z,6.36
2022-12-28T17:32:07.367Z,6.41
2022-12-28T17:34:36.067Z,6.30
2022-12-28T17:37:06.020Z,6.34
2022-12-28T17:39:40.302Z,6.45
2022-12-28T17:42:10.258Z,6.29
2022-12-28T17:44:38.755Z,6.48
2022-12-28T17:47:07.261Z,6.37
2022-12-28T17:49:35.703Z,6.37
2022-12-28T17:52:05.693Z,6.20
2022-12-28T17:54:34.865Z,6.33
2022-12-28T17:57:03.244Z,6.31
2022-12-28T17:59:31.933Z,6.23
2022-12-28T18:02:01.978Z,6.31
2022-12-28T18:04:30.880Z,6.40
2022-12-28T18:06:59.210Z,6.44
2022-12-28T18:09:29.069Z,6.46
2022-12-28T18:11:57.683Z,6.26
2022-12-28T18:14:26.291Z,6.22
2022-12-28T18:16:55.466Z,6.46
2022-12-28T18:19:23.921Z,6.43
2022-12-28T18:21:52.454Z,6.39
2022-12-28T18:24:22.385Z,6.29
2022-12-28T18:26:52.192Z,6.33
2022-12-28T18:29:20.652Z,6.27
2022-12-28T18:31:49.026Z,6.39
2022-12-28T18:34:17.443Z,6.59
2022-12-28T18:36:45.861Z,6.49
2022-12-28T18:39:14.563Z,6.46
2022-12-28T18:41:42.974Z,6.45
2022-12-28T18:44:12.694Z,6.50
2022-12-28T18:46:41.522Z,6.52
2022-12-28T18:49:09.903Z,6.58
2022-12-28T18:51:39.793Z,6.55
2022-12-28T18:54:08.156Z,6.65
2022-12-28T18:56:36.499Z,6.68
2022-12-28T18:59:04.919Z,6.50
2022-12-28T19:04:25.399Z,6.67
2022-12-28T19:06:53.941Z,6.69
2022-12-28T19:09:23.357Z,6.73
2022-12-28T19:11:52.771Z,6.81
2022-12-28T19:14:21.199Z,6.84
2022-12-28T19:16:50.917Z,6.97
2022-12-28T19:19:20.453Z,7.03
2022-12-28T19:21:52.290Z,6.87
2022-12-28T19:24:23.616Z,6.93
2022-12-28T19:26:53.755Z,6.84
2022-12-28T19:29:22.154Z,6.79
2022-12-28T19:31:51.934Z,6.87
2022-12-28T19:34:20.369Z,6.94
2022-12-28T19:36:48.819Z,7.05
2022-12-28T19:39:17.298Z,6.90
2022-12-28T19:41:45.630Z,7.02
2022-12-28T19:44:14.574Z,7.06
2022-12-28T19:46:43.146Z,7.15
2022-12-28T19:49:12.871Z,7.15
2022-12-28T19:51:42.851Z,7.15
2022-12-28T19:54:12.507Z,7.13
2022-12-28T19:56:41.114Z,7.20
2022-12-28T19:59:09.689Z,7.18
2022-12-28T20:01:39.283Z,7.11
2022-12-28T20:04:13.477Z,7.14
2022-12-28T20:06:45.325Z,7.24
2022-12-28T20:09:15.518Z,7.33
2022-12-28T20:11:45.643Z,7.17
2022-12-28T20:14:20.383Z,7.41
2022-12-28T20:16:52.870Z,7.23
2022-12-28T20:19:21.261Z,7.38
2022-12-28T20:21:51.211Z,7.48
2022-12-28T20:24:21.765Z,7.59
2022-12-28T20:26:50.201Z,7.55
2022-12-28T20:29:18.568Z,7.50
2022-12-28T20:31:46.981Z,7.64
2022-12-28T20:34:15.352Z,7.53
2022-12-28T20:36:43.778Z,7.65
2022-12-28T20:39:13.613Z,7.59
2022-12-28T20:41:59.291Z,7.59
2022-12-28T20:44:31.349Z,7.63
2022-12-28T20:47:00.769Z,7.63
2022-12-28T20:49:31.459Z,7.69
2022-12-28T20:51:59.814Z,7.61
2022-12-28T20:54:29.724Z,7.79
2022-12-28T20:56:58.106Z,7.80
2022-12-28T20:59:26.980Z,7.59
2022-12-28T21:01:55.794Z,7.76
2022-12-28T21:04:25.753Z,7.55
2022-12-28T21:06:55.151Z,7.51
2022-12-28T21:09:24.085Z,7.54
2022-12-28T21:11:53.764Z,7.85
2022-12-28T21:14:24.216Z,7.68
2022-12-28T21:16:52.895Z,7.60
2022-12-28T21:19:23.678Z,7.75
2022-12-28T21:21:52.022Z,7.53
2022-12-28T21:24:20.365Z,7.71
2022-12-28T21:26:48.744Z,7.82
2022-12-28T21:29:25.436Z,7.53
2022-12-28T21:31:54.782Z,7.82
2022-12-28T21:34:23.606Z,7.84
2022-12-28T21:36:51.946Z,7.80
2022-12-28T21:39:20.977Z,7.66
2022-12-28T21:41:50.498Z,7.94
2022-12-28T21:44:24.418Z,7.89
2022-12-28T21:46:54.418Z,7.90
2022-12-28T21:49:23.200Z,7.91
2022-12-28T21:51:54.855Z,7.86
2022-12-28T21:54:24.020Z,7.80
2022-12-28T21:56:55.590Z,8.00
2022-12-28T21:59:27.646Z,8.03
2022-12-28T22:02:14.046Z,7.94
2022-12-28T22:05:03.621Z,8.04
2022-12-28T22:07:32.918Z,8.07
2022-12-28T22:10:20.037Z,7.90
2022-12-28T22:12:48.415Z,8.10
2022-12-28T22:15:39.976Z,8.01
2022-12-28T22:18:37.096Z,7.80
2022-12-28T22:21:08.839Z,8.04
2022-12-28T22:23:38.142Z,7.87
2022-12-28T22:26:10.491Z,8.18
2022-12-28T22:28:40.688Z,8.22
2022-12-28T22:31:10.920Z,8.20
2022-12-28T22:33:39.455Z,7.77
2022-12-28T22:36:13.927Z,8.23
2022-12-28T22:38:42.593Z,8.23
2022-12-28T22:41:13.960Z,8.26
2022-12-28T22:43:43.700Z,8.12
2022-12-28T22:46:13.637Z,8.12
2022-12-28T22:48:41.977Z,8.16
2022-12-28T22:51:13.554Z,8.16
2022-12-28T22:53:43.875Z,8.23
2022-12-28T22:56:23.148Z,8.12
2022-12-28T22:58:51.567Z,8.26
2022-12-28T23:01:22.097Z,8.25
2022-12-28T23:03:51.658Z,8.15
2022-12-28T23:06:21.625Z,7.94
2022-12-28T23:08:50.002Z,8.29
2022-12-28T23:11:39.348Z,8.35
2022-12-28T23:14:29.954Z,8.40
2022-12-28T23:17:00.761Z,8.27
2022-12-28T23:19:47.907Z,8.17
2022-12-28T23:22:36.676Z,8.34
2022-12-28T23:25:24.356Z,8.27
2022-12-28T23:27:54.611Z,8.34
2022-12-28T23:30:24.566Z,8.54
2022-12-28T23:33:00.938Z,8.40
2022-12-28T23:35:32.951Z,8.68
2022-12-28T23:38:01.362Z,8.47
2022-12-28T23:40:29.989Z,8.61
2022-12-28T23:42:58.836Z,8.59
2022-12-28T23:45:27.486Z,8.59
2022-12-28T23:47:57.204Z,8.33
2022-12-28T23:50:27.837Z,8.39
2022-12-28T23:52:58.861Z,7.96
2022-12-28T23:55:30.150Z,8.42
2022-12-28T23:58:15.637Z,8.36
